| time (UTC) | temp C | wind direction | speed KPH | gust KPH | rain 1hr cm | rain 24hr cm | rain mn cm | humidity % | barometer mb |
| 20260906051820 | 16 | 290 | 16.1 | 0.0 | 0.00 | 0.00 | 0.00 | 68 | 1019.0 |
| 20260906050436 | 16 | 290 | 16.1 | 0.0 | 0.00 | 0.00 | 0.00 | 68 | 1019.0 |
| 20260906044936 | 15 | 300 | 16.1 | 0.0 | 0.00 | 0.00 | 0.00 | 72 | 1018.0 |
| 20260906043425 | 15 | 290 | 16.1 | 0.0 | 0.00 | 0.00 | 0.00 | 77 | 1019.0 |
| 20260906041937 | 15 | 290 | 16.1 | 0.0 | 0.00 | 0.00 | 0.00 | 77 | 1019.0 |
| 20260906040340 | 15 | 290 | 16.1 | 0.0 | 0.00 | 0.00 | 0.00 | 77 | 1019.0 |
| 20260906034836 | 13 | 310 | 24.1 | 0.0 | 0.00 | 0.00 | 0.00 | 82 | 1018.0 |
| 20260906033437 | 13 | 310 | 24.1 | 0.0 | 0.00 | 0.00 | 0.00 | ||
| 20260906031936 | 16 | 290 | 12.9 | 0.0 | 0.00 | 0.00 | 0.00 | 72 | 1018.0 |
| 20260906030436 | 16 | 290 | 12.9 | 0.0 | 0.00 | 0.00 | 0.00 | 72 | 1018.0 |
| 20260906024847 | 15 | 260 | 16.1 | 0.0 | 0.00 | 0.00 | 0.00 | 82 | 1017.0 |
| 20260906023320 | 15 | 260 | 16.1 | 0.0 | 0.00 | 0.00 | 0.00 | 82 | 1017.0 |
| 20260906021827 | 13 | 260 | 14.5 | 0.0 | 0.00 | 0.00 | 0.00 | 82 | 1017.0 |
| 20260906020321 | 13 | 260 | 14.5 | 0.0 | 0.00 | 0.00 | 0.00 | 82 | 1017.0 |
| 20260906014821 | 13 | 250 | 11.3 | 0.0 | 0.00 | 0.00 | 0.00 | 82 | 1018.0 |
| 20260906013437 | 13 | 250 | 11.3 | 0.0 | 0.00 | 0.00 | 0.00 | 82 | 1018.0 |
| 20260906011820 | 13 | 230 | 11.3 | 0.0 | 0.00 | 0.00 | 0.00 | 82 | 1017.0 |
| 20260906010320 | 13 | 230 | 11.3 | 0.0 | 0.00 | 0.00 | 0.00 | 82 | 1017.0 |
| 20260906004937 | 15 | 250 | 12.9 | 0.0 | 0.00 | 0.00 | 0.00 | 77 | 1018.0 |
| 20260906003447 | 15 | 250 | 12.9 | 0.0 | 0.00 | 0.00 | 0.00 | 77 | 1018.0 |
| 20260906001936 | 13 | 260 | 12.9 | 0.0 | 0.00 | 0.00 | 0.00 | 82 | 1018.0 |
| 20260906000426 | 13 | 260 | 12.9 | 0.0 | 0.00 | 0.00 | 0.00 | 82 | 1018.0 |
| 20260905234830 | 13 | 260 | 12.9 | 0.0 | 0.00 | 0.00 | 0.00 | 82 | 1018.0 |
| 20260905233320 | 13 | 260 | 12.9 | 0.0 | 0.00 | 0.00 | 0.00 | 82 | 1018.0 |
| 20260905231937 | 12 | 240 | 11.3 | 0.0 | 0.00 | 0.00 | 0.00 | 94 | 1018.0 |
| 20260905230352 | 12 | 240 | 11.3 | 0.0 | 0.00 | 0.00 | 0.00 | 94 | 1018.0 |
| 20260905224937 | 15 | 260 | 12.9 | 0.0 | 0.00 | 0.00 | 0.00 | 77 | 1018.0 |
| 20260905223334 | 15 | 260 | 12.9 | 0.0 | 0.00 | 0.00 | 0.00 | 77 | 1018.0 |
| 20260905221922 | 15 | 270 | 14.5 | 0.0 | 0.00 | 0.00 | 0.00 | 82 | 1018.0 |
| 20260905220437 | 15 | 270 | 14.5 | 0.0 | 0.00 | 0.00 | 0.00 | 82 | 1018.0 |
| 20260905214936 | 13 | 280 | 11.3 | 0.0 | 0.00 | 0.00 | 0.00 | 88 | 1018.0 |
| 20260905213320 | 13 | 280 | 11.3 | 0.0 | 0.00 | 0.00 | 0.00 | 88 | 1018.0 |
| 20260905211820 | 15 | 280 | 12.9 | 0.0 | 0.00 | 0.00 | 0.00 | 82 | 1018.0 |
| 20260905210320 | 15 | 280 | 12.9 | 0.0 | 0.00 | 0.00 | 0.00 | 82 | 1018.0 |
| 20260905204831 | 15 | 290 | 11.3 | 0.0 | 0.00 | 0.00 | 0.00 | 82 | 1018.0 |
| 20260905203320 | 15 | 290 | 11.3 | 0.0 | 0.00 | 0.00 | 0.00 | 82 | 1018.0 |
| 20260905201820 | 15 | 300 | 8.0 | 0.0 | 0.00 | 0.00 | 0.00 | 82 | 1017.0 |
| 20260905200437 | 15 | 300 | 8.0 | 0.0 | 0.00 | 0.00 | 0.00 | 82 | 1017.0 |
| 20260905194928 | 13 | 210 | 3.2 | 0.0 | 0.00 | 0.00 | 0.00 | 94 | 1017.0 |
| 20260905193320 | 13 | 210 | 3.2 | 0.0 | 0.00 | 0.00 | 0.00 | 94 | 1017.0 |
| 20260905191849 | 13 | 3.2 | 0.0 | 0.00 | 0.00 | 0.00 | 94 | 1017.0 | |
| 20260905190321 | 13 | 3.2 | 0.0 | 0.00 | 0.00 | 0.00 | 94 | 1017.0 | |
| 20260905184821 | 15 | 270 | 9.7 | 0.0 | 0.00 | 0.00 | 0.00 | 88 | 1017.0 |
| 20260905183325 | 15 | 270 | 9.7 | 0.0 | 0.00 | 0.00 | 0.00 | 88 | 1017.0 |
| 20260905181820 | 15 | 260 | 8.0 | 0.0 | 0.00 | 0.00 | 0.00 | 88 | 1017.0 |
| 20260905180320 | 15 | 260 | 8.0 | 0.0 | 0.00 | 0.00 | 0.00 | 88 | 1017.0 |
| 20260905174820 | 15 | 330 | 9.7 | 0.0 | 0.00 | 0.00 | 0.00 | 88 | 1016.0 |
| 20260905173320 | 15 | 330 | 9.7 | 0.0 | 0.00 | 0.00 | 0.00 | 88 | 1016.0 |
| 20260905171831 | 15 | 330 | 17.7 | 0.0 | 0.00 | 0.00 | 0.00 | 88 | 1016.0 |
| 20260905170320 | 15 | 330 | 17.7 | 0.0 | 0.00 | 0.00 | 0.00 | 88 | 1016.0 |
| 20260905164820 | 16 | 330 | 17.7 | 0.0 | 0.00 | 0.00 | 0.00 | 88 | 1016.0 |
| 20260905163321 | 16 | 330 | 17.7 | 0.0 | 0.00 | 0.00 | 0.00 | 88 | 1016.0 |
| 20260905161821 | 16 | 320 | 14.5 | 0.0 | 0.00 | 0.00 | 0.00 | 94 | 1016.0 |
| 20260905160321 | 16 | 320 | 14.5 | 0.0 | 0.00 | 0.00 | 0.00 | 94 | 1016.0 |
| 20260905154837 | 17 | 30 | 8.0 | 0.0 | 0.00 | 0.00 | 0.00 | 83 | 1015.0 |
| 20260905153320 | 17 | 30 | 8.0 | 0.0 | 0.00 | 0.00 | 0.00 | 83 | 1015.0 |
| 20260905151821 | 17 | 340 | 11.3 | 0.0 | 0.00 | 0.00 | 0.00 | 73 | 1016.0 |
| 20260905150321 | 17 | 340 | 11.3 | 0.0 | 0.00 | 0.00 | 0.00 | 73 | 1016.0 |
| 20260905144820 | 18 | 330 | 29.0 | 0.0 | 0.00 | 0.00 | 0.00 | 68 | 1016.0 |
| 20260905143320 | 18 | 330 | 29.0 | 0.0 | 0.00 | 0.00 | 0.00 | 68 | 1016.0 |
| 20260905141821 | 20 | 320 | 35.4 | 0.0 | 0.00 | 0.00 | 0.00 | 64 | 1015.0 |
| 20260905140320 | 20 | 320 | 35.4 | 0.0 | 0.00 | 0.00 | 0.00 | 64 | 1015.0 |
| 20260905134934 | 20 | 330 | 35.4 | 0.0 | 0.00 | 0.00 | 0.00 | 69 | 1015.0 |
| 20260905133320 | 20 | 330 | 35.4 | 0.0 | 0.00 | 0.00 | 0.00 | 69 | 1015.0 |
| 20260905131823 | 17 | 330 | 29.0 | 0.0 | 0.00 | 0.00 | 0.00 | 78 | 1015.0 |
| 20260905130342 | 17 | 330 | 29.0 | 0.0 | 0.00 | 0.00 | 0.00 | 78 | 1015.0 |
| 20260905123321 | 21 | 340 | 33.8 | 0.0 | 0.00 | 0.00 | 0.00 | 64 | 1015.0 |
| 20260905121848 | 25 | 350 | 32.2 | 0.0 | 0.00 | 0.00 | 0.00 | 57 | 1015.0 |
| 20260905120321 | 25 | 350 | 32.2 | 0.0 | 0.00 | 0.00 | 0.00 | 57 | 1015.0 |
| 20260905114820 | 27 | 340 | 22.5 | 0.0 | 0.00 | 0.00 | 0.00 | 45 | 1014.0 |
| 20260905113320 | 27 | 340 | 22.5 | 0.0 | 0.00 | 0.00 | 0.00 | 45 | 1014.0 |
| 20260905111839 | 30 | 330 | 16.1 | 0.0 | 0.00 | 0.00 | 0.00 | 38 | 1014.0 |
| 20260905110320 | 30 | 330 | 16.1 | 0.0 | 0.00 | 0.00 | 0.00 | 38 | 1014.0 |
| 20260905104820 | 30 | 300 | 14.5 | 0.0 | 0.00 | 0.00 | 0.00 | 38 | 1013.0 |
| 20260905103320 | 30 | 300 | 14.5 | 0.0 | 0.00 | 0.00 | 0.00 | 38 | 1013.0 |
| 20260905101820 | 28 | 190 | 11.3 | 0.0 | 0.00 | 0.00 | 0.00 | 40 | 1013.0 |
| 20260905100321 | 28 | 190 | 11.3 | 0.0 | 0.00 | 0.00 | 0.00 | 40 | 1013.0 |
| 20260905094937 | 28 | 220 | 14.5 | 0.0 | 0.00 | 0.00 | 0.00 | 37 | 1013.0 |
| 20260905093320 | 28 | 220 | 14.5 | 0.0 | 0.00 | 0.00 | 0.00 | 37 | 1013.0 |
| 20260905091820 | 26 | 200 | 12.9 | 0.0 | 0.00 | 0.00 | 0.00 | 48 | 1013.0 |
| 20260905090320 | 26 | 200 | 12.9 | 0.0 | 0.00 | 0.00 | 0.00 | 48 | 1013.0 |
| 20260905084820 | 26 | 220 | 20.9 | 0.0 | 0.00 | 0.00 | 0.00 | 45 | 1013.0 |
| 20260905083320 | 26 | 220 | 20.9 | 0.0 | 0.00 | 0.00 | 0.00 | 45 | 1013.0 |
| 20260905081820 | 26 | 210 | 22.5 | 0.0 | 0.00 | 0.00 | 0.00 | 48 | 1013.0 |
| 20260905080321 | 26 | 210 | 22.5 | 0.0 | 0.00 | 0.00 | 0.00 | 48 | 1013.0 |
| 20260905074820 | 23 | 230 | 22.5 | 0.0 | 0.00 | 0.00 | 0.00 | 50 | 1014.0 |
| 20260905073329 | 23 | 230 | 22.5 | 0.0 | 0.00 | 0.00 | 0.00 | 50 | 1014.0 |
| 20260905071821 | 25 | 240 | 29.0 | 0.0 | 0.00 | 0.00 | 0.00 | 47 | 1014.0 |
| 20260905070320 | 25 | 240 | 29.0 | 0.0 | 0.00 | 0.00 | 0.00 | 47 | 1014.0 |
| 20260905064821 | 23 | 240 | 33.8 | 0.0 | 0.00 | 0.00 | 0.00 | 50 | 1014.0 |
| 20260905063321 | 23 | 240 | 33.8 | 0.0 | 0.00 | 0.00 | 0.00 | 50 | 1014.0 |
| 20260905061821 | 22 | 230 | 24.1 | 0.0 | 0.00 | 0.00 | 0.00 | 53 | 1014.0 |
| 20260905060321 | 22 | 230 | 24.1 | 0.0 | 0.00 | 0.00 | 0.00 | 53 | 1014.0 |
| 20260905054821 | 22 | 240 | 27.4 | 0.0 | 0.00 | 0.00 | 0.00 | 57 | 1014.0 |
| 20260905053321 | 22 | 240 | 27.4 | 0.0 | 0.00 | 0.00 | 0.00 | 57 | 1014.0 |